Windischgarsten, Austria
Current Conditions -  °F | °C
As of 5:20 AM on Wednesday 22 Oct 2014 (Local Time) from LOWL Reporting Station
Broken Clouds Broken Clouds  
Wind Chill: 39°   Ceiling: 16000
Heat Index: 46°   Visibility: 6mi
Dew Point: 39°   Wind: 22mph
Humidity: 76%   Direction: 270°W
Pressure: 29.8"   Gusts: NA
Location:  47.72°N, 14.33°E
Report Text: LOWL 220320Z 27019KT 9999 FEW021 SCT060 BKN160 08/04 Q1009 NOSIG
Loading
Personal Weather Stations






























Interactive Weather Map
Tropical Storm Tracking
New forecast layout! Learn more

10-Day Weather Forecast

Advertisements
Track Severe Weather on mobile